Flight Track Log - Related Links

Times and Time Zones

All times are in EDT time to prevent confusion due to time zone crossing. See the AAL1012 flight status page for this flight to view local times or setup timezone preferences in your user account.

Time Position Orientation Groundspeed Altitude Reporting Facility
EDT Latitude Longitude Course Direction KTS MPH feet Rate Location/Type
Mon 03:28:42 PM 25.8040 -80.2590 90° East 174 200 900  Level FlightAware ADS-B
Mon 03:29:07 PM 25.8070 -80.2350 82° East 192 221 1,700 1,418 Climbing FlightAware ADS-B
Mon 03:29:37 PM 25.8120 -80.2040 80° East 227 261 2,200 1,309 Climbing FlightAware ADS-B
Mon 03:30:02 PM 25.8150 -80.1740 84° East 246 283 2,900 1,745 Climbing FlightAware ADS-B
Mon 03:30:32 PM 25.8250 -80.1370 73° East 267 307 3,800 2,000 Climbing FlightAware ADS-B
Mon 03:30:47 PM 25.8410 -80.1240 36° Northeast 271 312 4,400 2,160 Climbing FlightAware ADS-B
Mon 03:30:57 PM 25.8530 -80.1220 North 270 311 4,700 2,400 Climbing FlightAware ADS-B
Mon 03:31:27 PM 25.8890 -80.1340 343° North 271 312 6,000 2,400 Climbing FlightAware ADS-B
Mon 03:31:57 PM 25.9240 -80.1510 336° Northwest 274 315 7,100 2,400 Climbing FlightAware ADS-B
Mon 03:32:22 PM 25.9530 -80.1650 337° Northwest 275 316 8,200 2,550 Climbing FlightAware ADS-B
Mon 03:32:37 PM 25.9710 -80.1740 336° Northwest 280 322 8,800 2,250 Climbing FlightAware ADS-B
Mon 03:33:02 PM 26.0010 -80.1880 337° Northwest 288 331 9,700 2,400 Climbing FlightAware ADS-B
Mon 03:33:47 PM 26.0580 -80.2150 337° Northwest 302 348 11,600 2,600 Climbing FlightAware ADS-B
Mon 03:34:32 PM 26.1130 -80.2400 338° Northwest 312 359 13,600 2,682 Climbing FlightAware ADS-B
Mon 03:35:12 PM 26.1700 -80.2640 339° North 328 377 15,400 2,775 Climbing FlightAware ADS-B
Mon 03:35:52 PM 26.2310 -80.2830 344° North 350 403 17,300 2,250 Climbing FlightAware ADS-B
Mon 03:36:32 PM 26.2930 -80.3110 338° Northwest 370 426 18,400 1,906 Climbing FlightAware ADS-B
Mon 03:37:17 PM 26.3700 -80.3470 337° Northwest 398 458 20,000 2,267 Climbing FlightAware ADS-B
Mon 03:38:02 PM 26.4450 -80.3810 338° Northwest 399 459 21,800 2,850 Climbing FlightAware ADS-B
Mon 03:38:37 PM 26.5070 -80.4090 338° Northwest 386 444 23,800 2,700 Climbing FlightAware ADS-B
Mon 03:39:22 PM 26.5790 -80.4410 338° Northwest 385 443 25,400 2,467 Climbing FlightAware ADS-B
Mon 03:40:07 PM 26.6620 -80.4780 338° Northwest 381 438 27,500 2,188 Climbing FlightAware ADS-B
Mon 03:40:47 PM 26.7290 -80.5080 338° Northwest 386 444 28,500 1,029 Climbing FlightAware ADS-B
Mon 03:41:17 PM 26.7820 -80.5320 338° Northwest 400 460 28,700 1,488 Climbing FlightAware ADS-B
Mon 03:42:52 PM 26.9620 -80.5550 354° North 424 488 31,600 1,586 Climbing FlightAware ADS-B
Mon 03:43:37 PM 27.0400 -80.5420 North 419 482 32,400 771 Climbing FlightAware ADS-B
Mon 03:44:02 PM 27.0900 -80.5350 North 438 504 32,500 429 Climbing FlightAware ADS-B
Mon 03:44:47 PM 27.1910 -80.5190 North 452 520 32,900 706 Climbing FlightAware ADS-B
Mon 03:45:27 PM 27.2700 -80.5060 North 457 526 33,500 831 Climbing FlightAware ADS-B
Mon 03:45:52 PM 27.3190 -80.5140 352° North 424 488 33,800 1,108 Climbing FlightAware ADS-B
Mon 03:46:32 PM 27.3860 -80.5570 330° Northwest 411 473 34,700 1,271 Climbing FlightAware ADS-B
Mon 03:47:17 PM 27.4600 -80.6070 329° Northwest 400 460 35,600 1,067 Climbing FlightAware ADS-B
Mon 03:48:02 PM 27.5340 -80.6560 330° Northwest 408 470 36,300 918 Climbing FlightAware ADS-B
Mon 03:48:42 PM 27.5970 -80.6980 329° Northwest 408 470 36,900 525 Climbing FlightAware ADS-B
Mon 03:49:22 PM 27.6600 -80.7400 329° Northwest 411 473 37,000 60 Climbing FlightAware ADS-B
Mon 03:50:22 PM 27.7560 -80.8040 329° Northwest 412 474 37,000  Level FlightAware ADS-B
Mon 03:50:57 PM 27.8130 -80.8420 329° Northwest 412 474 37,000  Level FlightAware ADS-B
Mon 03:51:47 PM 27.8930 -80.8960 329° Northwest 411 473 37,000  Level FlightAware ADS-B
Mon 03:52:22 PM 27.9530 -80.9360 330° Northwest 409 471 37,000  Level FlightAware ADS-B
Mon 03:53:12 PM 28.0390 -80.9870 332° Northwest 418 481 37,000  Level FlightAware ADS-B
Mon 03:53:52 PM 28.1220 -81.0080 347° North 434 499 37,000  Level FlightAware ADS-B
Mon 03:54:32 PM 28.1980 -81.0250 349° North 434 499 37,000  Level FlightAware ADS-B
Mon 03:55:12 PM 28.2720 -81.0420 349° North 425 489 37,000  Level FlightAware ADS-B
Mon 03:55:57 PM 28.3640 -81.0620 349° North 424 488 37,000  Level FlightAware ADS-B
Mon 03:56:37 PM 28.4420 -81.0800 349° North 423 487 37,000  Level FlightAware ADS-B
Mon 03:57:22 PM 28.5310 -81.1000 349° North 423 487 37,000  Level FlightAware ADS-B
Mon 03:58:02 PM 28.6110 -81.1180 349° North 423 487 37,000  Level FlightAware ADS-B
Mon 03:58:42 PM 28.6870 -81.1350 349° North 423 487 37,000  Level FlightAware ADS-B
Mon 03:59:27 PM 28.7770 -81.1550 349° North 430 495 37,000  Level FlightAware ADS-B
Mon 04:00:07 PM 28.8550 -81.1720 349° North 423 487 37,000  Level FlightAware ADS-B
Mon 04:00:47 PM 28.9290 -81.1890 349° North 430 495 37,000  Level FlightAware ADS-B
Mon 04:01:32 PM 29.0210 -81.2100 349° North 430 495 37,000  Level FlightAware ADS-B
Mon 04:02:17 PM 29.1100 -81.2300 349° North 430 495 37,000  Level FlightAware ADS-B
Mon 04:02:57 PM 29.1910 -81.2480 349° North 423 487 37,000  Level FlightAware ADS-B
Mon 04:03:32 PM 29.2560 -81.2630 349° North 423 487 37,000  Level FlightAware ADS-B
Mon 04:04:17 PM 29.3310 -81.2810 348° North 423 487 37,000  Level FlightAware ADS-B
Mon 04:04:57 PM 29.3960 -81.2970 348° North 423 487 37,000  Level FlightAware ADS-B
Mon 04:05:37 PM 29.4610 -81.3130 348° North 423 487 37,000  Level FlightAware ADS-B
Mon 04:06:27 PM 29.5430 -81.3330 348° North 423 487 37,000  Level FlightAware ADS-B
Mon 04:07:07 PM 29.6080 -81.3480 349° North 423 487 37,000  Level FlightAware ADS-B
Mon 04:08:17 PM 29.8220 -81.3900 350° North 439 505 37,000  Level FlightAware ADS-B
Mon 04:09:02 PM 29.9050 -81.3980 355° North 444 511 37,000  Level FlightAware ADS-B
Mon 04:09:42 PM 29.9740 -81.4050 355° North 444 511 37,000  Level FlightAware ADS-B
Mon 04:10:22 PM 30.0440 -81.4120 355° North 444 511 37,000  Level FlightAware ADS-B
Mon 04:11:02 PM 30.1130 -81.4190 355° North 444 511 37,000  Level FlightAware ADS-B
Mon 04:11:42 PM 30.1830 -81.4270 354° North 444 511 37,000  Level FlightAware ADS-B
Mon 04:12:32 PM 30.2700 -81.4350 355° North 444 511 37,000  Level FlightAware ADS-B
Mon 04:13:12 PM 30.3390 -81.4420 355° North 444 511 37,000  Level FlightAware ADS-B
Mon 04:13:52 PM 30.4090 -81.4490 355° North 444 511 37,000  Level FlightAware ADS-B
Mon 04:14:32 PM 30.4790 -81.4560 355° North 444 511 37,000  Level FlightAware ADS-B
Mon 04:15:12 PM 30.5480 -81.4640 354° North 444 511 37,000  Level FlightAware ADS-B
Mon 04:16:02 PM 30.6350 -81.4720 355° North 444 511 37,000  Level FlightAware ADS-B
Mon 04:16:42 PM 30.7050 -81.4790 355° North 444 511 37,000  Level FlightAware ADS-B
Mon 04:17:22 PM 30.7740 -81.4870 354° North 444 511 37,000  Level FlightAware ADS-B
Mon 04:18:02 PM 30.8440 -81.4940 355° North 444 511 37,000  Level FlightAware ADS-B
Mon 04:23:37 PM 31.7090 -81.3150 10° North 455 524 37,000  Level FlightAware ADS-B
Mon 04:24:17 PM 31.7900 -81.2940 12° North 455 524 37,000  Level FlightAware ADS-B
Mon 04:25:07 PM 31.8860 -81.2690 12° North 455 524 37,000  Level FlightAware ADS-B
Mon 04:25:47 PM 31.9690 -81.2460 13° North 455 524 37,000  Level FlightAware ADS-B
Mon 04:26:27 PM 32.0680 -81.2200 13° North 456 525 37,000  Level FlightAware ADS-B
Mon 04:27:12 PM 32.1470 -81.1830 22° Northeast 470 541 37,000  Level FlightAware ADS-B
Mon 04:28:02 PM 32.2120 -81.1020 47° Northeast 481 554 37,000  Level FlightAware ADS-B
Mon 04:28:52 PM 32.2840 -80.9900 53° Northeast 486 559 37,000  Level FlightAware ADS-B
Mon 04:29:22 PM 32.3190 -80.9370 52° Northeast 486 559 37,000  Level FlightAware ADS-B
Mon 04:30:12 PM 32.4020 -80.8060 53° Northeast 486 559 37,000  Level FlightAware ADS-B
Mon 04:30:52 PM 32.4580 -80.7200 52° Northeast 486 559 37,000  Level FlightAware ADS-B
Mon 04:31:32 PM 32.5140 -80.6330 53° Northeast 486 559 37,000  Level FlightAware ADS-B
Mon 04:32:07 PM 32.5630 -80.5570 53° Northeast 487 560 37,000  Level FlightAware ADS-B
Mon 04:33:02 PM 32.6360 -80.4430 53° Northeast 489 563 37,000  Level FlightAware ADS-B
Mon 04:33:42 PM 32.6930 -80.3550 52° Northeast 491 565 37,000  Level FlightAware ADS-B
Mon 04:34:22 PM 32.7460 -80.2710 53° Northeast 491 565 37,000  Level FlightAware ADS-B
Mon 04:35:07 PM 32.8030 -80.1810 53° Northeast 491 565 37,000  Level FlightAware ADS-B
Mon 04:35:47 PM 32.8640 -80.0860 53° Northeast 492 566 37,000  Level FlightAware ADS-B
Mon 04:36:27 PM 32.9240 -80.0100 47° Northeast 484 557 37,000  Level FlightAware ADS-B
Mon 04:37:12 PM 33.0030 -79.9330 39° Northeast 482 555 37,000  Level FlightAware ADS-B
Mon 04:37:52 PM 33.0720 -79.8660 39° Northeast 483 556 37,000  Level FlightAware ADS-B
Mon 04:38:32 PM 33.1400 -79.8000 39° Northeast 481 554 37,000  Level FlightAware ADS-B
Mon 04:39:17 PM 33.2170 -79.7260 39° Northeast 481 554 37,000  Level FlightAware ADS-B
Mon 04:40:12 PM 33.3130 -79.6320 39° Northeast 481 554 37,000  Level FlightAware ADS-B
Mon 04:40:57 PM 33.3880 -79.5590 39° Northeast 480 552 37,000  Level FlightAware ADS-B
Mon 04:41:37 PM 33.4570 -79.4910 39° Northeast 480 552 37,000  Level FlightAware ADS-B
Mon 04:42:17 PM 33.5220 -79.4280 39° Northeast 481 554 37,000  Level FlightAware ADS-B
Mon 04:43:02 PM 33.6030 -79.3480 39° Northeast 483 556 37,000  Level FlightAware ADS-B
Mon 04:43:37 PM 33.6640 -79.2880 39° Northeast 483 556 37,000  Level FlightAware ADS-B
Mon 04:44:27 PM 33.7510 -79.2020 39° Northeast 483 556 37,000  Level FlightAware ADS-B
Mon 04:45:07 PM 33.8190 -79.1350 39° Northeast 484 557 37,000  Level FlightAware ADS-B
Mon 04:45:47 PM 33.8830 -79.0720 39° Northeast 485 558 37,000  Level FlightAware ADS-B
Mon 04:46:32 PM 33.9670 -78.9880 40° Northeast 484 557 37,000  Level FlightAware ADS-B
Mon 04:47:07 PM 34.0180 -78.9370 40° Northeast 483 556 37,000  Level FlightAware ADS-B
Mon 04:47:57 PM 34.0920 -78.8650 39° Northeast 483 556 37,000  Level FlightAware ADS-B
Mon 04:48:37 PM 34.1510 -78.8070 39° Northeast 483 556 37,000  Level FlightAware ADS-B
Mon 04:49:17 PM 34.2100 -78.7500 39° Northeast 483 556 37,000  Level FlightAware ADS-B
Mon 04:49:57 PM 34.2690 -78.6920 39° Northeast 483 556 37,000  Level FlightAware ADS-B
Mon 04:50:37 PM 34.3280 -78.6340 39° Northeast 483 556 37,000  Level FlightAware ADS-B
Mon 04:51:27 PM 34.4020 -78.5610 39° Northeast 483 556 37,000  Level FlightAware ADS-B
Mon 04:52:07 PM 34.4610 -78.5030 39° Northeast 483 556 37,000  Level FlightAware ADS-B
Mon 04:52:47 PM 34.5200 -78.4450 39° Northeast 483 556 37,000  Level FlightAware ADS-B
Mon 04:53:27 PM 34.5790 -78.3870 39° Northeast 483 556 37,000  Level FlightAware ADS-B
Mon 04:54:07 PM 34.6380 -78.3290 39° Northeast 483 556 37,000  Level FlightAware ADS-B
Mon 04:54:57 PM 34.7120 -78.2570 39° Northeast 483 556 37,000  Level FlightAware ADS-B
Mon 04:55:37 PM 34.7710 -78.1980 39° Northeast 483 556 37,000  Level FlightAware ADS-B
Mon 04:56:17 PM 34.8300 -78.1400 39° Northeast 483 556 37,000 -1,622 Level FlightAware ADS-B
Mon 04:56:51 PM 35.0128 -77.9278 39° Northeast 469 540 35,000 -1,290 Descending Washington Center
Mon 04:57:50 PM 35.1108 -77.8264 40° Northeast 464 534 35,000  Level Washington Center
Mon 04:58:50 PM 35.2128 -77.7197 41° Northeast 464 534 35,000  Level Washington Center
Mon 04:59:50 PM 35.3128 -77.6156 40° Northeast 464 534 35,000 -250 Level Washington Center
Mon 05:00:50 PM 35.4144 -77.5189 38° Northeast 464 534 34,500 -700 Descending Washington Center
Mon 05:01:50 PM 35.5181 -77.4294 35° Northeast 459 528 33,600 -750 Descending Washington Center
Mon 05:02:50 PM 35.6239 -77.3347 36° Northeast 459 528 33,000 -300 Descending Washington Center
Mon 05:03:50 PM 35.7294 -77.2450 35° Northeast 459 528 33,000  Level Washington Center
Mon 05:04:50 PM 35.8331 -77.1522 36° Northeast 459 528 33,000  Level Washington Center
Mon 05:05:50 PM 35.9342 -77.0619 36° Northeast 452 520 33,000 -50 Level Washington Center
Mon 05:06:50 PM 36.0375 -76.9689 36° Northeast 452 520 32,900 -500 Descending Washington Center
Mon 05:07:50 PM 36.1428 -76.8781 35° Northeast 458 527 32,000 -542 Descending Washington Center
Mon 05:13:27 PM 36.7270 -76.3510 35° Northeast 29,000 -484 Descending FlightAware ADS-B
Mon 05:14:02 PM 36.7840 -76.2990 36° Northeast 460 529 29,000  Level FlightAware ADS-B
Mon 05:14:42 PM 36.8530 -76.2360 36° Northeast 460 529 29,000  Level FlightAware ADS-B
Mon 05:15:22 PM 36.9370 -76.1760 30° Northeast 448 516 29,000  Level FlightAware ADS-B
Mon 05:16:37 PM 37.0720 -76.1050 23° Northeast 453 521 29,000  Level FlightAware ADS-B
Mon 05:17:17 PM 37.1470 -76.0650 23° Northeast 451 519 29,000  Level FlightAware ADS-B
Mon 05:18:02 PM 37.2380 -76.0170 23° Northeast 442 509 29,000  Level FlightAware ADS-B
Mon 05:18:57 PM 37.3450 -75.9590 23° Northeast 443 510 29,000  Level FlightAware ADS-B
Mon 05:19:24 PM 37.4084 -75.9253 23° Northeast 452 520 29,000  Level FlightAware ADS-B
Mon 05:20:01 PM 37.4793 -75.8871 23° Northeast 452 520 29,000  Level FlightAware ADS-B
Mon 05:20:28 PM 37.5313 -75.8582 24° Northeast 455 524 29,000 -429 Level FlightAware ADS-B
Mon 05:20:43 PM 37.5597 -75.8386 29° Northeast 461 531 28,700 -1,043 Descending FlightAware ADS-B
Mon 05:21:14 PM 37.6157 -75.7968 31° Northeast 459 528 28,200 -968 Descending FlightAware ADS-B
Mon 05:21:45 PM 37.6724 -75.7540 31° Northeast 458 527 27,700 -1,031 Descending FlightAware ADS-B
Mon 05:22:18 PM 37.7314 -75.7096 31° Northeast 456 525 27,100 -1,048 Descending FlightAware ADS-B
Mon 05:22:48 PM 37.7856 -75.6688 31° Northeast 445 512 26,600 -1,031 Descending FlightAware ADS-B
Mon 05:23:22 PM 37.8445 -75.6246 31° Northeast 437 503 26,000 -1,015 Descending FlightAware ADS-B
Mon 05:23:53 PM 37.8983 -75.5843 31° Northeast 426 490 25,500 -968 Descending FlightAware ADS-B
Mon 05:24:24 PM 37.9508 -75.5444 31° Northeast 425 489 25,000 -968 Descending FlightAware ADS-B
Mon 05:24:55 PM 38.0017 -75.5056 31° Northeast 425 489 24,500 -1,065 Descending FlightAware ADS-B
Mon 05:25:26 PM 38.0546 -75.4656 31° Northeast 426 490 23,900 -1,013 Descending FlightAware ADS-B
Mon 05:26:12 PM 38.1280 -75.4190 27° Northeast 413 475 23,200 -907 Descending FlightAware ADS-B
Mon 05:26:52 PM 38.1950 -75.3770 26° Northeast 415 478 22,600 -1,063 Descending FlightAware ADS-B
Mon 05:27:48 PM 38.2993 -75.3107 27° Northeast 409 471 21,500 -1,116 Descending FlightAware ADS-B
Mon 05:28:18 PM 38.3505 -75.2784 26° Northeast 407 468 21,000 -1,000 Descending FlightAware ADS-B
Mon 05:28:54 PM 38.4106 -75.2406 26° Northeast 400 460 20,400 -1,500 Descending FlightAware ADS-B
Mon 05:29:26 PM 38.4622 -75.2079 26° Northeast 390 449 19,300 -2,156 Descending FlightAware ADS-B
Mon 05:29:58 PM 38.5130 -75.1751 27° Northeast 382 440 18,100 -2,507 Descending FlightAware ADS-B
Mon 05:30:33 PM 38.5682 -75.1397 27° Northeast 382 440 16,500 -2,170 Descending FlightAware ADS-B
Mon 05:31:32 PM 38.6500 -75.0880 26° Northeast 376 433 14,700 -1,652 Descending FlightAware ADS-B
Mon 05:31:42 PM 38.6775 -75.0699 27° Northeast 381 438 14,600 -122 Descending FlightAware ADS-B
Mon 05:32:21 PM 38.7415 -75.0453 17° North 376 433 14,600  Level FlightAware ADS-B
Mon 05:32:54 PM 38.7984 -75.0399 North 374 430 14,600  Level FlightAware ADS-B
Mon 05:33:24 PM 38.8509 -75.0348 North 372 428 14,600  Level FlightAware ADS-B
Mon 05:33:55 PM 38.9032 -75.0297 North 371 427 14,600  Level FlightAware ADS-B
Mon 05:34:25 PM 38.9556 -75.0246 North 371 427 14,600 -290 Level FlightAware ADS-B
Mon 05:34:57 PM 39.0099 -75.0193 North 372 428 14,300 -1,125 Descending FlightAware ADS-B
Mon 05:35:29 PM 39.0649 -75.0142 North 374 430 13,400 -1,969 Descending FlightAware ADS-B
Mon 05:36:01 PM 39.1190 -75.0087 North 366 421 12,200 -1,754 Descending FlightAware ADS-B
Mon 05:36:34 PM 39.1745 -75.0029 North 349 402 11,500 -1,455 Descending FlightAware ADS-B
Mon 05:37:07 PM 39.2270 -74.9979 North 336 387 10,600 -1,475 Descending FlightAware ADS-B
Mon 05:37:35 PM 39.2681 -74.9937 North 316 364 10,000 -1,304 Descending FlightAware ADS-B
Mon 05:37:53 PM 39.2941 -74.9910 North 305 351 9,600 -1,371 Descending FlightAware ADS-B
Mon 05:38:10 PM 39.3171 -74.9889 North 294 338 9,200 -1,273 Descending FlightAware ADS-B
Mon 05:38:26 PM 39.3388 -74.9869 North 289 333 8,900 -1,125 Descending FlightAware ADS-B
Mon 05:38:42 PM 39.3603 -74.9851 North 287 330 8,600 -545 Descending FlightAware ADS-B
Mon 05:38:59 PM 39.3820 -74.9838 North 287 330 8,600 -222 Level FlightAware ADS-B
Mon 05:39:09 PM 39.3949 -74.9877 347° North 284 327 8,500 -1,200 Descending FlightAware ADS-B
Mon 05:39:19 PM 39.4064 -74.9975 327° Northwest 281 323 8,200 -1,667 Descending FlightAware ADS-B
Mon 05:39:27 PM 39.4123 -75.0071 309° West 279 321 8,000 -1,286 Descending FlightAware ADS-B
Mon 05:39:33 PM 39.4161 -75.0157 300° West 277 319 7,900 -1,500 Descending FlightAware ADS-B
Mon 05:39:39 PM 39.4200 -75.0247 299° West 277 319 7,700 -692 Descending FlightAware ADS-B
Mon 05:39:59 PM 39.4334 -75.0522 302° West 273 314 7,600 -500 Descending FlightAware ADS-B
Mon 05:40:15 PM 39.4449 -75.0745 304° West 272 313 7,400 -1,277 Descending FlightAware ADS-B
Mon 05:40:46 PM 39.4663 -75.1147 305° West 271 312 6,600 -1,565 Descending FlightAware ADS-B
Mon 05:41:01 PM 39.4776 -75.1361 304° West 271 312 6,200 -1,548 Descending FlightAware ADS-B
Mon 05:41:17 PM 39.4884 -75.1572 304° West 271 312 5,800 -1,125 Descending FlightAware ADS-B
Mon 05:41:33 PM 39.4993 -75.1782 304° West 266 306 5,600 -375 Descending FlightAware ADS-B
Mon 05:41:49 PM 39.5101 -75.1990 304° West 261 300 5,600  Level FlightAware ADS-B
Mon 05:42:06 PM 39.5216 -75.2211 304° West 258 297 5,600  Level FlightAware ADS-B
Mon 05:42:22 PM 39.5322 -75.2412 304° West 258 297 5,600  Level FlightAware ADS-B
Mon 05:42:38 PM 39.5432 -75.2624 304° West 253 291 5,600  Level FlightAware ADS-B
Mon 05:42:54 PM 39.5529 -75.2808 304° West 240 276 5,600  Level FlightAware ADS-B
Mon 05:43:02 PM 39.5581 -75.2903 305° West 236 272 5,600 500 Level FlightAware ADS-B
Mon 05:43:06 PM 39.5610 -75.2946 311° West 236 272 5,700  Climbing FlightAware ADS-B
Mon 05:43:14 PM 39.5676 -75.3015 321° Northwest 238 274 5,600 -462 Descending FlightAware ADS-B
Mon 05:43:19 PM 39.5723 -75.3052 329° Northwest 238 274 5,600 -750 Level FlightAware ADS-B
Mon 05:43:22 PM 39.5752 -75.3073 331° Northwest 239 275 5,500 -1,000 Descending FlightAware ADS-B
Mon 05:43:25 PM 39.5783 -75.3091 336° Northwest 239 275 5,500 -1,333 Level FlightAware ADS-B
Mon 05:43:31 PM 39.5845 -75.3123 338° Northwest 242 278 5,300 -1,636 Descending FlightAware ADS-B
Mon 05:43:36 PM 39.5901 -75.3145 343° North 244 281 5,200 -1,125 Descending FlightAware ADS-B
Mon 05:43:47 PM 39.6017 -75.3178 348° North 246 283 5,000 -923 Descending FlightAware ADS-B
Mon 05:44:02 PM 39.6182 -75.3226 347° North 243 280 4,800 -774 Descending FlightAware ADS-B
Mon 05:44:18 PM 39.6361 -75.3278 347° North 238 274 4,600 -774 Descending FlightAware ADS-B
Mon 05:44:33 PM 39.6521 -75.3324 348° North 236 272 4,400 -800 Descending FlightAware ADS-B
Mon 05:44:48 PM 39.6683 -75.3370 348° North 231 266 4,200 -1,000 Descending FlightAware ADS-B
Mon 05:45:03 PM 39.6838 -75.3411 348° North 230 265 3,900 -1,355 Descending FlightAware ADS-B
Mon 05:45:19 PM 39.7003 -75.3457 348° North 229 264 3,500 -1,371 Descending FlightAware ADS-B
Mon 05:45:38 PM 39.7199 -75.3514 347° North 229 264 3,100 -1,059 Descending FlightAware ADS-B
Mon 05:45:53 PM 39.7354 -75.3564 346° North 225 259 2,900 -774 Descending FlightAware ADS-B
Mon 05:46:09 PM 39.7512 -75.3615 346° North 217 250 2,700 -563 Descending FlightAware ADS-B
Mon 05:46:25 PM 39.7662 -75.3658 348° North 207 238 2,600 -621 Descending FlightAware ADS-B
Mon 05:46:38 PM 39.7782 -75.3693 347° North 201 231 2,400 -1,034 Descending FlightAware ADS-B
Mon 05:46:54 PM 39.7923 -75.3732 348° North 197 227 2,100 -1,143 Descending FlightAware ADS-B
Mon 05:46:59 PM 39.7967 -75.3742 350° North 196 226 2,000 -1,333 Descending FlightAware ADS-B
Mon 05:47:03 PM 39.8006 -75.3748 353° North 195 224 1,900 -750 Descending FlightAware ADS-B
Mon 05:47:07 PM 39.8042 -75.3749 359° North 194 223 1,900 -600 Level FlightAware ADS-B
Mon 05:47:13 PM 39.8096 -75.3746 North 192 221 1,800 -1,286 Descending FlightAware ADS-B
Mon 05:47:21 PM 39.8166 -75.3736 North 194 223 1,600 -1,059 Descending FlightAware ADS-B
Mon 05:47:30 PM 39.8246 -75.3718 10° North 191 220 1,500 -1,000 Descending FlightAware ADS-B
Mon 05:47:33 PM 39.8276 -75.3708 14° North 189 217 1,400 -1,500 Descending FlightAware ADS-B
Mon 05:47:42 PM 39.8345 -75.3675 20° North 185 213 1,200 -1,000 Descending FlightAware ADS-B
Mon 05:47:51 PM 39.8404 -75.3622 35° Northeast 175 201 1,100 -923 Descending FlightAware ADS-B
Mon 05:47:55 PM 39.8425 -75.3591 49° Northeast 168 193 1,000 -750 Descending FlightAware ADS-B
Mon 05:47:59 PM 39.8442 -75.3555 58° Northeast 163 188 1,000 -667 Level FlightAware ADS-B
Mon 05:48:04 PM 39.8456 -75.3511 67° East 158 182 900 -545 Descending FlightAware ADS-B
Mon 05:48:10 PM 39.8467 -75.3463 73° East 154 177 900 -857 Level FlightAware ADS-B
Mon 05:48:25 PM 39.8494 -75.3323 76° East 151 174 600 -1,034 Descending FlightAware ADS-B
Mon 05:48:39 PM 39.8516 -75.3208 76° East 146 168 400 -750 Descending FlightAware ADS-B
Mon 05:48:49 PM 39.8535 -75.3119 74° East 146 168 300 -310 Descending FlightAware ADS-B
Mon 05:49:37 PM 39.8600 -75.2790 76° East 147 169 100 -250 Descending FlightAware ADS-B

Login

Don't have an account? Register now (free) for customized features, flight alerts, and more!